sensor_id;sensor_type;location;lat;lon;timestamp;pressure;altitude;pressure_sealevel;temperature;humidity
69982;BME280;57319;56.274;43.980;2023-04-16T00:00:31;101318.72;;;-0.57;60.84
69982;BME280;57319;56.274;43.980;2023-04-16T00:02:57;101324.47;;;-0.59;61.19
69982;BME280;57319;56.274;43.980;2023-04-16T00:05:23;101331.72;;;-0.65;61.61
69982;BME280;57319;56.274;43.980;2023-04-16T00:07:48;101329.97;;;-0.66;61.63
69982;BME280;57319;56.274;43.980;2023-04-16T00:10:16;101334.84;;;-0.70;61.94
69982;BME280;57319;56.274;43.980;2023-04-16T00:12:41;101340.59;;;-0.72;61.76
69982;BME280;57319;56.274;43.980;2023-04-16T00:15:08;101335.28;;;-0.77;61.41
69982;BME280;57319;56.274;43.980;2023-04-16T00:17:33;101337.53;;;-0.81;60.89
69982;BME280;57319;56.274;43.980;2023-04-16T00:19:59;101330.28;;;-0.90;60.94
69982;BME280;57319;56.274;43.980;2023-04-16T00:22:25;101335.06;;;-0.95;60.39
69982;BME280;57319;56.274;43.980;2023-04-16T00:24:50;101338.28;;;-0.97;60.19
69982;BME280;57319;56.274;43.980;2023-04-16T00:27:17;101340.72;;;-0.99;59.75
69982;BME280;57319;56.274;43.980;2023-04-16T00:29:43;101334.53;;;-1.04;58.89
69982;BME280;57319;56.274;43.980;2023-04-16T00:32:09;101336.28;;;-1.03;58.59
69982;BME280;57319;56.274;43.980;2023-04-16T00:34:35;101332.78;;;-1.05;58.64
69982;BME280;57319;56.274;43.980;2023-04-16T00:37:00;101331.81;;;-1.07;58.42
69982;BME280;57319;56.274;43.980;2023-04-16T00:39:26;101332.50;;;-1.10;57.98
69982;BME280;57319;56.274;43.980;2023-04-16T00:41:52;101331.63;;;-1.10;57.60
69982;BME280;57319;56.274;43.980;2023-04-16T00:44:17;101334.13;;;-1.10;57.11
69982;BME280;57319;56.274;43.980;2023-04-16T00:46:44;101331.25;;;-1.16;57.11
69982;BME280;57319;56.274;43.980;2023-04-16T00:49:10;101335.53;;;-1.15;56.67
69982;BME280;57319;56.274;43.980;2023-04-16T00:51:36;101342.75;;;-1.22;55.97
69982;BME280;57319;56.274;43.980;2023-04-16T00:54:02;101340.22;;;-1.22;56.42
69982;BME280;57319;56.274;43.980;2023-04-16T00:56:29;101339.13;;;-1.25;56.53
69982;BME280;57319;56.274;43.980;2023-04-16T00:58:55;101342.84;;;-1.33;56.17
69982;BME280;57319;56.274;43.980;2023-04-16T01:01:21;101346.09;;;-1.36;56.20
69982;BME280;57319;56.274;43.980;2023-04-16T01:03:48;101351.16;;;-1.36;56.39
69982;BME280;57319;56.274;43.980;2023-04-16T01:06:16;101353.47;;;-1.39;57.41
69982;BME280;57319;56.274;43.980;2023-04-16T01:08:42;101347.47;;;-1.41;57.39
69982;BME280;57319;56.274;43.980;2023-04-16T01:11:13;101347.38;;;-1.43;57.36
69982;BME280;57319;56.274;43.980;2023-04-16T01:13:40;101354.16;;;-1.42;57.23
69982;BME280;57319;56.274;43.980;2023-04-16T01:16:07;101347.47;;;-1.41;56.87
69982;BME280;57319;56.274;43.980;2023-04-16T01:18:34;101346.78;;;-1.39;56.45
69982;BME280;57319;56.274;43.980;2023-04-16T01:21:00;101345.88;;;-1.39;56.37
69982;BME280;57319;56.274;43.980;2023-04-16T01:23:26;101339.13;;;-1.40;56.36
69982;BME280;57319;56.274;43.980;2023-04-16T01:25:52;101339.72;;;-1.44;55.90
69982;BME280;57319;56.274;43.980;2023-04-16T01:28:17;101336.00;;;-1.49;54.78
69982;BME280;57319;56.274;43.980;2023-04-16T01:30:43;101335.84;;;-1.52;54.17
69982;BME280;57319;56.274;43.980;2023-04-16T01:33:12;101340.00;;;-1.53;52.84
69982;BME280;57319;56.274;43.980;2023-04-16T01:35:39;101334.16;;;-1.52;52.14
69982;BME280;57319;56.274;43.980;2023-04-16T01:38:08;101334.16;;;-1.52;51.48
69982;BME280;57319;56.274;43.980;2023-04-16T01:40:35;101347.47;;;-1.55;51.06
69982;BME280;57319;56.274;43.980;2023-04-16T01:43:02;101347.56;;;-1.53;49.74
69982;BME280;57319;56.274;43.980;2023-04-16T01:45:28;101341.75;;;-1.52;49.43
69982;BME280;57319;56.274;43.980;2023-04-16T01:47:55;101339.91;;;-1.55;49.35
69982;BME280;57319;56.274;43.980;2023-04-16T01:50:21;101341.34;;;-1.58;49.35
69982;BME280;57319;56.274;43.980;2023-04-16T01:52:47;101351.34;;;-1.60;49.67
69982;BME280;57319;56.274;43.980;2023-04-16T01:55:13;101344.38;;;-1.64;50.13
69982;BME280;57319;56.274;43.980;2023-04-16T01:57:39;101357.50;;;-1.69;50.74
69982;BME280;57319;56.274;43.980;2023-04-16T02:00:05;101344.97;;;-1.68;50.80
69982;BME280;57319;56.274;43.980;2023-04-16T02:02:33;101350.09;;;-1.66;51.67
69982;BME280;57319;56.274;43.980;2023-04-16T02:04:59;101360.19;;;-1.66;52.20
69982;BME280;57319;56.274;43.980;2023-04-16T02:07:26;101355.97;;;-1.67;53.21
69982;BME280;57319;56.274;43.980;2023-04-16T02:09:52;101357.31;;;-1.73;54.03
69982;BME280;57319;56.274;43.980;2023-04-16T02:12:18;101360.41;;;-1.77;54.38
69982;BME280;57319;56.274;43.980;2023-04-16T02:14:44;101358.56;;;-1.79;55.47
69982;BME280;57319;56.274;43.980;2023-04-16T02:17:10;101356.03;;;-1.79;56.09
69982;BME280;57319;56.274;43.980;2023-04-16T02:19:36;101355.38;;;-1.77;56.57
69982;BME280;57319;56.274;43.980;2023-04-16T02:22:02;101352.16;;;-1.74;55.71
69982;BME280;57319;56.274;43.980;2023-04-16T02:24:28;101348.75;;;-1.75;55.80
69982;BME280;57319;56.274;43.980;2023-04-16T02:26:54;101349.56;;;-1.76;54.70
69982;BME280;57319;56.274;43.980;2023-04-16T02:29:21;101350.41;;;-1.75;54.06
69982;BME280;57319;56.274;43.980;2023-04-16T02:31:47;101357.50;;;-1.69;53.80
69982;BME280;57319;56.274;43.980;2023-04-16T02:34:13;101356.81;;;-1.67;53.74
69982;BME280;57319;56.274;43.980;2023-04-16T02:36:39;101356.81;;;-1.67;54.42
69982;BME280;57319;56.274;43.980;2023-04-16T02:39:05;101354.97;;;-1.69;54.08
69982;BME280;57319;56.274;43.980;2023-04-16T02:41:31;101357.81;;;-1.65;53.99
69982;BME280;57319;56.274;43.980;2023-04-16T02:43:57;101363.03;;;-1.62;54.81
69982;BME280;57319;56.274;43.980;2023-04-16T02:46:22;101356.50;;;-1.58;54.65
69982;BME280;57319;56.274;43.980;2023-04-16T02:48:49;101368.34;;;-1.57;55.00
69982;BME280;57319;56.274;43.980;2023-04-16T02:51:15;101356.91;;;-1.52;54.35
69982;BME280;57319;56.274;43.980;2023-04-16T02:53:41;101364.75;;;-1.47;54.29
69982;BME280;57319;56.274;43.980;2023-04-16T02:56:10;101363.38;;;-1.42;53.73
69982;BME280;57319;56.274;43.980;2023-04-16T02:58:37;101367.25;;;-1.34;53.94
69982;BME280;57319;56.274;43.980;2023-04-16T03:01:03;101365.00;;;-1.29;53.12
69982;BME280;57319;56.274;43.980;2023-04-16T03:03:29;101373.16;;;-1.20;53.30
69982;BME280;57319;56.274;43.980;2023-04-16T03:05:55;101371.78;;;-1.15;52.77
69982;BME280;57319;56.274;43.980;2023-04-16T03:08:20;101374.78;;;-1.07;52.50
69982;BME280;57319;56.274;43.980;2023-04-16T03:10:46;101370.16;;;-0.99;52.25
69982;BME280;57319;56.274;43.980;2023-04-16T03:13:12;101371.41;;;-0.93;52.47
69982;BME280;57319;56.274;43.980;2023-04-16T03:15:38;101373.53;;;-0.86;52.17
69982;BME280;57319;56.274;43.980;2023-04-16T03:18:04;101373.13;;;-0.78;51.88
69982;BME280;57319;56.274;43.980;2023-04-16T03:20:30;101376.00;;;-0.72;51.65
69982;BME280;57319;56.274;43.980;2023-04-16T03:22:56;101369.56;;;-0.67;51.36
69982;BME280;57319;56.274;43.980;2023-04-16T03:25:22;101371.56;;;-0.61;51.44
69982;BME280;57319;56.274;43.980;2023-04-16T03:27:47;101379.44;;;-0.57;51.02
69982;BME280;57319;56.274;43.980;2023-04-16T03:30:15;101374.44;;;-0.55;51.23
69982;BME280;57319;56.274;43.980;2023-04-16T03:32:41;101372.91;;;-0.53;51.17
69982;BME280;57319;56.274;43.980;2023-04-16T03:35:07;101379.19;;;-0.46;51.00
69982;BME280;57319;56.274;43.980;2023-04-16T03:37:33;101376.84;;;-0.43;51.67
69982;BME280;57319;56.274;43.980;2023-04-16T03:40:00;101375.38;;;-0.40;51.41
69982;BME280;57319;56.274;43.980;2023-04-16T03:42:25;101378.16;;;-0.35;51.52
69982;BME280;57319;56.274;43.980;2023-04-16T03:44:51;101379.22;;;-0.31;51.79
69982;BME280;57319;56.274;43.980;2023-04-16T03:47:21;101365.88;;;-0.29;51.35
69982;BME280;57319;56.274;43.980;2023-04-16T03:49:46;101377.00;;;-0.25;51.13
69982;BME280;57319;56.274;43.980;2023-04-16T03:52:12;101373.63;;;-0.26;51.36
69982;BME280;57319;56.274;43.980;2023-04-16T03:54:38;101377.19;;;-0.22;51.63
69982;BME280;57319;56.274;43.980;2023-04-16T03:57:04;101374.16;;;-0.16;51.21
69982;BME280;57319;56.274;43.980;2023-04-16T03:59:29;101379.53;;;-0.10;50.54
69982;BME280;57319;56.274;43.980;2023-04-16T04:01:55;101374.03;;;-0.03;49.83
69982;BME280;57319;56.274;43.980;2023-04-16T04:04:20;101372.88;;;0.07;49.24
69982;BME280;57319;56.274;43.980;2023-04-16T04:06:46;101368.50;;;0.19;48.40
69982;BME280;57319;56.274;43.980;2023-04-16T04:09:13;101373.38;;;0.31;49.01
69982;BME280;57319;56.274;43.980;2023-04-16T04:11:41;101373.63;;;0.36;48.34
69982;BME280;57319;56.274;43.980;2023-04-16T04:14:07;101378.34;;;0.44;47.65
69982;BME280;57319;56.274;43.980;2023-04-16T04:16:33;101373.66;;;0.52;47.21
69982;BME280;57319;56.274;43.980;2023-04-16T04:18:59;101370.78;;;0.61;46.38
69982;BME280;57319;56.274;43.980;2023-04-16T04:21:28;101374.59;;;0.69;46.08
69982;BME280;57319;56.274;43.980;2023-04-16T04:23:54;101370.03;;;0.78;45.66
69982;BME280;57319;56.274;43.980;2023-04-16T04:26:20;101375.63;;;0.89;45.91
69982;BME280;57319;56.274;43.980;2023-04-16T04:28:45;101363.22;;;0.94;45.26
69982;BME280;57319;56.274;43.980;2023-04-16T04:31:11;101364.56;;;1.04;45.00
69982;BME280;57319;56.274;43.980;2023-04-16T04:33:37;101364.41;;;1.17;44.40
69982;BME280;57319;56.274;43.980;2023-04-16T04:36:03;101368.28;;;1.27;44.00
69982;BME280;57319;56.274;43.980;2023-04-16T04:38:29;101367.16;;;1.38;44.52
69982;BME280;57319;56.274;43.980;2023-04-16T04:40:55;101369.25;;;1.47;44.29
69982;BME280;57319;56.274;43.980;2023-04-16T04:43:21;101356.91;;;1.53;43.89
69982;BME280;57319;56.274;43.980;2023-04-16T04:45:47;101363.38;;;1.64;43.78
69982;BME280;57319;56.274;43.980;2023-04-16T04:48:13;101361.16;;;1.71;42.98
69982;BME280;57319;56.274;43.980;2023-04-16T04:50:40;101359.94;;;1.80;43.29
69982;BME280;57319;56.274;43.980;2023-04-16T04:53:06;101352.66;;;1.88;42.61
69982;BME280;57319;56.274;43.980;2023-04-16T04:55:40;101361.75;;;2.01;42.29
69982;BME280;57319;56.274;43.980;2023-04-16T04:58:06;101358.13;;;2.14;40.53
69982;BME280;57319;56.274;43.980;2023-04-16T05:00:33;101347.25;;;2.16;39.31
69982;BME280;57319;56.274;43.980;2023-04-16T05:03:03;101357.97;;;2.29;37.85
69982;BME280;57319;56.274;43.980;2023-04-16T05:05:29;101351.31;;;2.31;38.18
69982;BME280;57319;56.274;43.980;2023-04-16T05:07:55;101357.69;;;2.41;37.88
69982;BME280;57319;56.274;43.980;2023-04-16T05:10:21;101356.44;;;2.50;37.63
69982;BME280;57319;56.274;43.980;2023-04-16T05:12:46;101355.84;;;2.56;36.50
69982;BME280;57319;56.274;43.980;2023-04-16T05:15:15;101359.72;;;2.67;36.03
69982;BME280;57319;56.274;43.980;2023-04-16T05:17:41;101359.63;;;2.84;36.48
69982;BME280;57319;56.274;43.980;2023-04-16T05:20:08;101356.03;;;2.98;34.64
69982;BME280;57319;56.274;43.980;2023-04-16T05:22:34;101348.09;;;3.12;34.36
69982;BME280;57319;56.274;43.980;2023-04-16T05:25:00;101351.38;;;3.29;35.83
69982;BME280;57319;56.274;43.980;2023-04-16T05:27:25;101353.66;;;3.42;35.04
69982;BME280;57319;56.274;43.980;2023-04-16T05:29:51;101352.53;;;3.56;35.33
69982;BME280;57319;56.274;43.980;2023-04-16T05:32:16;101348.63;;;3.65;34.98
69982;BME280;57319;56.274;43.980;2023-04-16T05:34:42;101351.50;;;3.72;34.83
69982;BME280;57319;56.274;43.980;2023-04-16T05:37:08;101351.78;;;3.80;34.03
69982;BME280;57319;56.274;43.980;2023-04-16T05:39:33;101348.72;;;3.87;30.25
69982;BME280;57319;56.274;43.980;2023-04-16T05:41:59;101350.28;;;4.06;30.72
69982;BME280;57319;56.274;43.980;2023-04-16T05:44:25;101353.41;;;4.20;30.42
69982;BME280;57319;56.274;43.980;2023-04-16T05:46:50;101359.09;;;4.36;30.85
69982;BME280;57319;56.274;43.980;2023-04-16T05:49:17;101351.00;;;4.48;31.12
69982;BME280;57319;56.274;43.980;2023-04-16T05:51:47;101355.00;;;4.64;31.30
69982;BME280;57319;56.274;43.980;2023-04-16T05:54:13;101358.06;;;4.78;31.63
69982;BME280;57319;56.274;43.980;2023-04-16T05:56:39;101351.66;;;4.89;31.87
69982;BME280;57319;56.274;43.980;2023-04-16T05:59:04;101350.41;;;5.00;32.04
69982;BME280;57319;56.274;43.980;2023-04-16T06:01:31;101348.00;;;5.05;31.80
69982;BME280;57319;56.274;43.980;2023-04-16T06:03:57;101354.22;;;5.13;31.57
69982;BME280;57319;56.274;43.980;2023-04-16T06:06:23;101351.19;;;5.23;31.60
69982;BME280;57319;56.274;43.980;2023-04-16T06:08:48;101351.31;;;5.26;31.43
69982;BME280;57319;56.274;43.980;2023-04-16T06:11:14;101356.06;;;5.41;31.13
69982;BME280;57319;56.274;43.980;2023-04-16T06:13:41;101356.25;;;5.48;31.08
69982;BME280;57319;56.274;43.980;2023-04-16T06:16:06;101355.72;;;5.56;30.38
69982;BME280;57319;56.274;43.980;2023-04-16T06:18:32;101346.53;;;5.63;30.90
69982;BME280;57319;56.274;43.980;2023-04-16T06:20:58;101354.78;;;5.80;30.65
69982;BME280;57319;56.274;43.980;2023-04-16T06:23:23;101354.91;;;5.85;30.45
69982;BME280;57319;56.274;43.980;2023-04-16T06:25:49;101343.34;;;5.96;30.58
69982;BME280;57319;56.274;43.980;2023-04-16T06:28:15;101355.69;;;6.08;29.26
69982;BME280;57319;56.274;43.980;2023-04-16T06:30:41;101361.19;;;6.20;29.32
69982;BME280;57319;56.274;43.980;2023-04-16T06:33:07;101359.94;;;6.35;27.99
69982;BME280;57319;56.274;43.980;2023-04-16T06:35:32;101353.47;;;6.48;26.63
69982;BME280;57319;56.274;43.980;2023-04-16T06:37:58;101354.63;;;6.57;26.23
69982;BME280;57319;56.274;43.980;2023-04-16T06:40:24;101346.31;;;6.66;25.42
69982;BME280;57319;56.274;43.980;2023-04-16T06:42:49;101358.00;;;6.87;25.05
69982;BME280;57319;56.274;43.980;2023-04-16T06:45:15;101354.03;;;6.96;24.44
69982;BME280;57319;56.274;43.980;2023-04-16T06:47:41;101357.72;;;7.06;24.45
69982;BME280;57319;56.274;43.980;2023-04-16T06:50:07;101351.91;;;7.13;23.95
69982;BME280;57319;56.274;43.980;2023-04-16T06:52:32;101350.22;;;7.14;23.67
69982;BME280;57319;56.274;43.980;2023-04-16T06:54:58;101347.88;;;7.22;23.41
69982;BME280;57319;56.274;43.980;2023-04-16T06:57:24;101342.16;;;7.32;23.87
69982;BME280;57319;56.274;43.980;2023-04-16T06:59:50;101338.16;;;7.42;22.80
69982;BME280;57319;56.274;43.980;2023-04-16T07:02:15;101338.47;;;7.54;22.66
69982;BME280;57319;56.274;43.980;2023-04-16T07:04:41;101337.81;;;7.63;22.37
69982;BME280;57319;56.274;43.980;2023-04-16T07:07:07;101337.38;;;7.79;22.42
69982;BME280;57319;56.274;43.980;2023-04-16T07:09:33;101323.00;;;7.86;22.06
69982;BME280;57319;56.274;43.980;2023-04-16T07:11:59;101330.03;;;7.95;21.76
69982;BME280;57319;56.274;43.980;2023-04-16T07:14:24;101331.91;;;8.02;21.50
69982;BME280;57319;56.274;43.980;2023-04-16T07:16:50;101332.22;;;8.16;20.98
69982;BME280;57319;56.274;43.980;2023-04-16T07:19:16;101332.50;;;8.28;20.88
69982;BME280;57319;56.274;43.980;2023-04-16T07:21:41;101332.06;;;8.46;20.80
69982;BME280;57319;56.274;43.980;2023-04-16T07:24:11;101326.31;;;8.60;20.96
69982;BME280;57319;56.274;43.980;2023-04-16T07:26:37;101328.00;;;8.58;19.84
69982;BME280;57319;56.274;43.980;2023-04-16T07:29:03;101324.66;;;8.60;19.11
69982;BME280;57319;56.274;43.980;2023-04-16T07:31:28;101324.69;;;8.63;19.37
69982;BME280;57319;56.274;43.980;2023-04-16T07:33:54;101334.16;;;8.66;18.75
69982;BME280;57319;56.274;43.980;2023-04-16T07:36:20;101319.53;;;8.62;18.70
69982;BME280;57319;56.274;43.980;2023-04-16T07:38:46;101318.72;;;8.63;18.61
69982;BME280;57319;56.274;43.980;2023-04-16T07:41:12;101317.09;;;8.68;19.20
69982;BME280;57319;56.274;43.980;2023-04-16T07:43:37;101326.72;;;8.78;19.09
69982;BME280;57319;56.274;43.980;2023-04-16T07:46:03;101317.16;;;8.71;19.26
69982;BME280;57319;56.274;43.980;2023-04-16T07:48:29;101323.88;;;8.64;19.46
69982;BME280;57319;56.274;43.980;2023-04-16T07:50:55;101324.06;;;8.74;19.48
69982;BME280;57319;56.274;43.980;2023-04-16T07:53:20;101323.59;;;8.93;20.01
69982;BME280;57319;56.274;43.980;2023-04-16T07:55:46;101325.59;;;9.08;19.99
69982;BME280;57319;56.274;43.980;2023-04-16T07:58:12;101317.78;;;9.05;19.67
69982;BME280;57319;56.274;43.980;2023-04-16T08:00:38;101320.41;;;9.07;20.00
69982;BME280;57319;56.274;43.980;2023-04-16T08:03:04;101323.81;;;9.06;19.77
69982;BME280;57319;56.274;43.980;2023-04-16T08:05:29;101316.97;;;9.06;20.22
69982;BME280;57319;56.274;43.980;2023-04-16T08:07:55;101324.13;;;9.23;20.35
69982;BME280;57319;56.274;43.980;2023-04-16T08:10:21;101316.38;;;9.21;19.85
69982;BME280;57319;56.274;43.980;2023-04-16T08:12:46;101316.44;;;9.26;18.84
69982;BME280;57319;56.274;43.980;2023-04-16T08:15:12;101316.50;;;9.27;19.50
69982;BME280;57319;56.274;43.980;2023-04-16T08:17:38;101312.25;;;9.29;18.38
69982;BME280;57319;56.274;43.980;2023-04-16T08:20:05;101301.13;;;9.30;19.27
69982;BME280;57319;56.274;43.980;2023-04-16T08:22:32;101304.81;;;9.46;18.90
69982;BME280;57319;56.274;43.980;2023-04-16T08:24:58;101309.16;;;9.49;17.97
69982;BME280;57319;56.274;43.980;2023-04-16T08:27:23;101300.63;;;9.53;18.17
69982;BME280;57319;56.274;43.980;2023-04-16T08:29:49;101299.22;;;9.71;18.56
69982;BME280;57319;56.274;43.980;2023-04-16T08:32:15;101296.78;;;9.80;17.23
69982;BME280;57319;56.274;43.980;2023-04-16T08:34:41;101296.00;;;9.84;17.39
69982;BME280;57319;56.274;43.980;2023-04-16T08:37:06;101296.88;;;9.86;17.37
69982;BME280;57319;56.274;43.980;2023-04-16T08:39:32;101293.47;;;9.87;17.54
69982;BME280;57319;56.274;43.980;2023-04-16T08:42:01;101295.19;;;9.88;17.60
69982;BME280;57319;56.274;43.980;2023-04-16T08:44:34;101285.06;;;9.97;17.46
69982;BME280;57319;56.274;43.980;2023-04-16T08:47:02;101275.72;;;10.06;17.77
69982;BME280;57319;56.274;43.980;2023-04-16T08:49:28;101273.34;;;10.21;18.33
69982;BME280;57319;56.274;43.980;2023-04-16T08:51:55;101276.72;;;10.15;16.94
69982;BME280;57319;56.274;43.980;2023-04-16T08:56:50;101277.69;;;10.25;17.58
69982;BME280;57319;56.274;43.980;2023-04-16T08:59:16;101282.09;;;10.34;17.66
69982;BME280;57319;56.274;43.980;2023-04-16T09:01:42;101277.00;;;10.37;17.36
69982;BME280;57319;56.274;43.980;2023-04-16T09:04:08;101271.00;;;10.37;16.40
69982;BME280;57319;56.274;43.980;2023-04-16T09:06:35;101271.84;;;10.35;16.67
69982;BME280;57319;56.274;43.980;2023-04-16T09:09:03;101271.94;;;10.43;17.02
69982;BME280;57319;56.274;43.980;2023-04-16T09:11:29;101273.84;;;10.58;17.15
69982;BME280;57319;56.274;43.980;2023-04-16T09:13:55;101276.41;;;10.58;16.98
69982;BME280;57319;56.274;43.980;2023-04-16T09:16:22;101268.63;;;10.53;16.98
69982;BME280;57319;56.274;43.980;2023-04-16T09:18:50;101265.28;;;10.59;17.26
69982;BME280;57319;56.274;43.980;2023-04-16T09:21:16;101259.38;;;10.69;17.10
69982;BME280;57319;56.274;43.980;2023-04-16T09:23:43;101255.16;;;10.76;17.64
69982;BME280;57319;56.274;43.980;2023-04-16T09:26:09;101243.19;;;10.81;16.54
69982;BME280;57319;56.274;43.980;2023-04-16T09:28:42;101251.06;;;10.98;16.58
69982;BME280;57319;56.274;43.980;2023-04-16T09:31:10;101247.66;;;10.99;16.47
69982;BME280;57319;56.274;43.980;2023-04-16T09:33:37;101245.19;;;11.10;16.58
69982;BME280;57319;56.274;43.980;2023-04-16T09:36:04;101246.13;;;11.22;16.50
69982;BME280;57319;56.274;43.980;2023-04-16T09:38:46;101246.16;;;11.26;16.67
69982;BME280;57319;56.274;43.980;2023-04-16T09:41:13;101239.34;;;11.31;16.44
69982;BME280;57319;56.274;43.980;2023-04-16T09:43:48;101234.25;;;11.39;16.63
69982;BME280;57319;56.274;43.980;2023-04-16T09:46:14;101238.53;;;11.38;16.66
69982;BME280;57319;56.274;43.980;2023-04-16T09:48:39;101233.47;;;11.52;16.67
69982;BME280;57319;56.274;43.980;2023-04-16T09:51:05;101225.81;;;11.62;16.30
69982;BME280;57319;56.274;43.980;2023-04-16T09:53:31;101229.31;;;11.73;16.58
69982;BME280;57319;56.274;43.980;2023-04-16T09:56:03;101224.13;;;11.70;16.52
69982;BME280;57319;56.274;43.980;2023-04-16T09:58:29;101227.47;;;11.55;16.57
69982;BME280;57319;56.274;43.980;2023-04-16T10:01:00;101211.97;;;11.47;15.69
69982;BME280;57319;56.274;43.980;2023-04-16T10:03:29;101211.22;;;11.67;16.52
69982;BME280;57319;56.274;43.980;2023-04-16T10:06:08;101221.56;;;11.71;15.30
69982;BME280;57319;56.274;43.980;2023-04-16T10:08:42;101217.38;;;11.92;15.26
69982;BME280;57319;56.274;43.980;2023-04-16T10:11:09;101211.44;;;12.02;15.20
69982;BME280;57319;56.274;43.980;2023-04-16T10:13:35;101227.88;;;12.25;15.37
69982;BME280;57319;56.274;43.980;2023-04-16T10:16:02;101212.44;;;12.37;15.40
69982;BME280;57319;56.274;43.980;2023-04-16T10:18:28;101215.91;;;12.45;14.81
69982;BME280;57319;56.274;43.980;2023-04-16T10:20:53;101209.00;;;12.46;15.21
69982;BME280;57319;56.274;43.980;2023-04-16T10:23:20;101199.59;;;12.74;15.06
69982;BME280;57319;56.274;43.980;2023-04-16T10:25:47;101209.09;;;13.07;14.70
69982;BME280;57319;56.274;43.980;2023-04-16T10:28:14;101207.38;;;13.16;14.82
69982;BME280;57319;56.274;43.980;2023-04-16T10:30:44;101206.47;;;12.67;14.10
69982;BME280;57319;56.274;43.980;2023-04-16T10:33:21;101197.00;;;12.57;14.59
69982;BME280;57319;56.274;43.980;2023-04-16T10:35:49;101200.50;;;12.79;14.48
69982;BME280;57319;56.274;43.980;2023-04-16T10:38:25;101201.34;;;13.17;13.86
69982;BME280;57319;56.274;43.980;2023-04-16T10:41:01;101206.56;;;13.38;13.94
69982;BME280;57319;56.274;43.980;2023-04-16T10:43:27;101202.19;;;13.65;14.04
69982;BME280;57319;56.274;43.980;2023-04-16T10:45:53;101198.72;;;13.76;13.28
69982;BME280;57319;56.274;43.980;2023-04-16T10:48:19;101204.78;;;13.61;13.56
69982;BME280;57319;56.274;43.980;2023-04-16T10:50:56;101197.00;;;13.71;13.26
69982;BME280;57319;56.274;43.980;2023-04-16T10:53:26;101201.09;;;14.28;13.51
69982;BME280;57319;56.274;43.980;2023-04-16T10:58:28;101204.44;;;14.50;13.17
69982;BME280;57319;56.274;43.980;2023-04-16T11:00:54;101203.22;;;15.08;12.66
69982;BME280;57319;56.274;43.980;2023-04-16T11:03:20;101194.38;;;16.10;12.91
69982;BME280;57319;56.274;43.980;2023-04-16T11:05:45;101193.09;;;17.02;12.09
69982;BME280;57319;56.274;43.980;2023-04-16T11:08:14;101192.25;;;17.01;12.20
69982;BME280;57319;56.274;43.980;2023-04-16T11:10:41;101179.28;;;16.96;11.93
69982;BME280;57319;56.274;43.980;2023-04-16T11:13:06;101185.66;;;16.77;11.74
69982;BME280;57319;56.274;43.980;2023-04-16T11:15:33;101181.34;;;16.14;12.39
69982;BME280;57319;56.274;43.980;2023-04-16T11:17:59;101169.38;;;16.03;12.20
69982;BME280;57319;56.274;43.980;2023-04-16T11:20:27;101166.63;;;16.13;11.53
69982;BME280;57319;56.274;43.980;2023-04-16T11:22:54;101174.75;;;15.86;11.81
69982;BME280;57319;56.274;43.980;2023-04-16T11:25:20;101177.06;;;16.70;11.56
69982;BME280;57319;56.274;43.980;2023-04-16T11:27:47;101172.63;;;17.32;11.11
69982;BME280;57319;56.274;43.980;2023-04-16T11:30:13;101165.69;;;17.77;10.73
69982;BME280;57319;56.274;43.980;2023-04-16T11:32:39;101164.28;;;17.12;11.83
69982;BME280;57319;56.274;43.980;2023-04-16T11:35:16;101169.56;;;17.56;11.07
69982;BME280;57319;56.274;43.980;2023-04-16T11:37:43;101165.50;;;17.87;11.13
69982;BME280;57319;56.274;43.980;2023-04-16T11:40:09;101167.72;;;17.63;11.56
69982;BME280;57319;56.274;43.980;2023-04-16T11:42:36;101161.50;;;18.14;11.27
69982;BME280;57319;56.274;43.980;2023-04-16T16:07:11;101033.84;;;9.99;19.01
69982;BME280;57319;56.274;43.980;2023-04-16T16:09:39;101025.19;;;9.90;19.28
69982;BME280;57319;56.274;43.980;2023-04-16T16:12:05;101032.81;;;9.83;19.64
69982;BME280;57319;56.274;43.980;2023-04-16T16:14:31;101031.84;;;9.74;19.77
69982;BME280;57319;56.274;43.980;2023-04-16T16:16:57;101025.75;;;9.65;19.72
69982;BME280;57319;56.274;43.980;2023-04-16T16:19:23;101030.84;;;9.58;19.69
69982;BME280;57319;56.274;43.980;2023-04-16T16:21:48;101033.28;;;9.48;19.73
69982;BME280;57319;56.274;43.980;2023-04-16T16:24:14;101035.75;;;9.42;19.57
69982;BME280;57319;56.274;43.980;2023-04-16T16:26:40;101040.00;;;9.37;19.94
69982;BME280;57319;56.274;43.980;2023-04-16T16:29:05;101038.22;;;9.31;19.82
69982;BME280;57319;56.274;43.980;2023-04-16T16:31:31;101032.97;;;9.24;19.70
69982;BME280;57319;56.274;43.980;2023-04-16T16:33:57;101032.91;;;9.19;20.07
69982;BME280;57319;56.274;43.980;2023-04-16T16:36:23;101035.41;;;9.14;20.10
69982;BME280;57319;56.274;43.980;2023-04-16T16:38:48;101034.47;;;9.09;20.65
69982;BME280;57319;56.274;43.980;2023-04-16T16:41:14;101032.69;;;9.05;21.44
69982;BME280;57319;56.274;43.980;2023-04-16T16:43:39;101034.28;;;8.97;21.80
69982;BME280;57319;56.274;43.980;2023-04-16T16:46:05;101041.06;;;8.90;21.34
69982;BME280;57319;56.274;43.980;2023-04-16T16:48:32;101045.34;;;8.90;21.28
69982;BME280;57319;56.274;43.980;2023-04-16T16:50:58;101041.81;;;8.85;21.09
69982;BME280;57319;56.274;43.980;2023-04-16T16:53:23;101040.91;;;8.79;20.96
69982;BME280;57319;56.274;43.980;2023-04-16T16:55:49;101035.69;;;8.75;20.57
69982;BME280;57319;56.274;43.980;2023-04-16T16:58:15;101033.13;;;8.76;20.16
69982;BME280;57319;56.274;43.980;2023-04-16T17:00:40;101038.34;;;8.79;20.38
69982;BME280;57319;56.274;43.980;2023-04-16T17:03:06;101033.22;;;8.79;20.88
69982;BME280;57319;56.274;43.980;2023-04-16T17:05:33;101029.72;;;8.74;20.40
69982;BME280;57319;56.274;43.980;2023-04-16T17:07:59;101038.19;;;8.70;20.76